Time;durP1;ratioP1;P1;durP2;ratioP2;P2;SDS_P1;SDS_P2;PMS_P1;PMS_P2;Temp;Humidity;BMP_temperature;BMP_pressure;BME280_temperature;BME280_humidity;BME280_pressure;Samples;Min_cycle;Max_cycle;Signal;HPM_P1;HPM_P2
2023/08/17 00:00:13;;;;;;;6.57;5.93;;;26.30;51.80;;;;;;5007931;28;114252;-80
2023/08/17 00:02:41;;;;;;;8.35;7.25;;;26.40;51.80;;;;;;4989696;28;114354;-79
2023/08/17 00:05:08;;;;;;;8.43;7.13;;;26.40;51.70;;;;;;5005716;28;116032;-78
2023/08/17 00:07:36;;;;;;;7.43;6.72;;;26.40;51.70;;;;;;5006157;28;115243;-79
2023/08/17 00:10:03;;;;;;;7.38;6.63;;;26.40;51.60;;;;;;4989282;28;114249;-79
2023/08/17 00:12:30;;;;;;;8.70;7.00;;;26.40;51.70;;;;;;5005897;28;114379;-78
2023/08/17 00:14:57;;;;;;;8.70;7.72;;;26.40;51.60;;;;;;5004998;28;114835;-79
2023/08/17 00:17:24;;;;;;;7.93;7.05;;;26.40;51.60;;;;;;5006104;28;114646;-79
2023/08/17 00:19:52;;;;;;;12.43;7.97;;;26.40;51.60;;;;;;5006625;28;114305;-81
2023/08/17 00:22:19;;;;;;;9.25;7.30;;;26.40;51.40;;;;;;5006901;28;114389;-79
2023/08/17 00:24:46;;;;;;;10.80;8.30;;;26.40;51.60;;;;;;5004921;28;115090;-79
2023/08/17 00:27:13;;;;;;;9.43;8.02;;;26.40;51.60;;;;;;5004800;28;114640;-79
2023/08/17 00:29:40;;;;;;;8.23;7.07;;;26.40;51.70;;;;;;5006179;28;114617;-78
2023/08/17 00:32:07;;;;;;;7.05;6.07;;;26.30;51.70;;;;;;5006476;28;114287;-79
2023/08/17 00:34:36;;;;;;;7.15;6.35;;;26.30;51.80;;;;;;5006141;28;114859;-80
2023/08/17 00:37:03;;;;;;;8.60;7.53;;;26.30;51.90;;;;;;5005786;28;114074;-79
2023/08/17 00:39:30;;;;;;;7.53;6.63;;;26.30;51.80;;;;;;5006786;28;114384;-79
2023/08/17 00:41:57;;;;;;;11.68;9.27;;;26.30;51.90;;;;;;5005463;28;114488;-79
2023/08/17 00:44:24;;;;;;;9.38;7.97;;;26.30;51.60;;;;;;5005815;28;115424;-78
2023/08/17 00:46:51;;;;;;;8.90;7.25;;;26.30;51.60;;;;;;5004804;28;115130;-79
2023/08/17 00:49:18;;;;;;;8.68;7.40;;;26.30;51.80;;;;;;4988901;28;114004;-79
2023/08/17 00:51:45;;;;;;;7.53;6.57;;;26.30;51.70;;;;;;5006584;28;114066;-79
2023/08/17 00:54:14;;;;;;;11.63;8.00;;;26.30;51.90;;;;;;5004075;28;115379;-79
2023/08/17 00:56:41;;;;;;;7.50;6.78;;;26.30;51.50;;;;;;4987970;28;114533;-79
2023/08/17 00:59:08;;;;;;;8.40;7.40;;;26.40;51.80;;;;;;4988333;28;114316;-78
2023/08/17 01:01:35;;;;;;;8.25;7.30;;;26.40;51.70;;;;;;5005299;28;114426;-79
2023/08/17 01:04:03;;;;;;;8.00;7.18;;;26.40;51.70;;;;;;4971498;28;114414;-79
2023/08/17 01:06:30;;;;;;;7.50;6.80;;;26.40;51.60;;;;;;5004371;28;114637;-79
2023/08/17 01:08:57;;;;;;;7.80;6.55;;;26.40;51.70;;;;;;4971757;28;114334;-79
2023/08/17 01:11:32;;;;;;;9.70;6.88;;;26.40;51.70;;;;;;5006209;28;114226;-79
2023/08/17 01:14:09;;;;;;;7.63;6.82;;;26.40;51.70;;;;;;5004154;28;114811;-79
2023/08/17 01:16:52;;;;;;;8.10;7.13;;;26.40;51.60;;;;;;5005498;28;114865;-79
2023/08/17 01:19:25;;;;;;;8.07;6.75;;;26.30;51.80;;;;;;5004621;28;114145;-79
2023/08/17 01:21:56;;;;;;;8.18;6.60;;;26.30;52.10;;;;;;4989209;28;114134;-80
2023/08/17 01:24:23;;;;;;;8.23;6.55;;;26.30;52.10;;;;;;4987779;28;115206;-79
2023/08/17 01:26:52;;;;;;;8.73;6.53;;;26.30;52.00;;;;;;4987305;28;115032;-79
2023/08/17 01:29:19;;;;;;;8.15;7.00;;;26.30;52.00;;;;;;4988746;28;114401;-78
2023/08/17 01:31:53;;;;;;;7.63;6.93;;;26.30;52.00;;;;;;5006691;28;114280;-80
2023/08/17 01:34:23;;;;;;;7.82;7.03;;;26.40;52.00;;;;;;4987441;28;114854;-79
2023/08/17 01:36:58;;;;;;;8.27;7.47;;;26.30;52.00;;;;;;5003915;28;114672;-79
2023/08/17 01:39:37;;;;;;;7.65;6.40;;;26.30;52.00;;;;;;5004910;28;114333;-79
2023/08/17 01:42:05;;;;;;;7.90;7.10;;;26.30;52.20;;;;;;5005007;28;114589;-79
2023/08/17 01:44:32;;;;;;;7.15;6.45;;;26.30;52.30;;;;;;5003886;28;114867;-79
2023/08/17 01:46:59;;;;;;;7.18;6.47;;;26.30;52.30;;;;;;5003790;28;117075;-79
2023/08/17 01:49:26;;;;;;;8.75;7.03;;;26.20;52.30;;;;;;5006093;28;114350;-79
2023/08/17 01:51:53;;;;;;;7.70;6.45;;;26.20;52.30;;;;;;5005543;28;114380;-79
2023/08/17 01:54:20;;;;;;;8.05;7.13;;;26.20;52.30;;;;;;5003749;28;114913;-79
2023/08/17 01:56:47;;;;;;;8.52;7.15;;;26.20;52.40;;;;;;5003770;28;114194;-79
2023/08/17 01:59:14;;;;;;;9.15;6.53;;;26.20;52.50;;;;;;5004433;28;114173;-79
2023/08/17 02:01:41;;;;;;;8.73;7.13;;;26.20;52.60;;;;;;4988738;28;114454;-78
2023/08/17 02:04:08;;;;;;;8.18;7.18;;;26.20;52.60;;;;;;4987498;28;115387;-79
2023/08/17 02:06:36;;;;;;;12.85;10.05;;;26.20;52.50;;;;;;4987028;28;114861;-79
2023/08/17 02:09:03;;;;;;;11.73;8.35;;;26.20;52.80;;;;;;5003573;28;114374;-79
2023/08/17 02:11:30;;;;;;;11.13;8.90;;;25.90;53.10;;;;;;5004141;28;114379;-79
2023/08/17 02:13:57;;;;;;;9.50;8.05;;;25.80;53.50;;;;;;5004540;28;114898;-81
2023/08/17 02:16:24;;;;;;;8.18;7.10;;;25.60;53.60;;;;;;5003053;28;114770;-79
2023/08/17 02:18:51;;;;;;;9.48;8.50;;;25.50;53.90;;;;;;5003986;28;114263;-79
2023/08/17 02:21:18;;;;;;;11.73;7.85;;;25.40;53.80;;;;;;5004042;28;114504;-80
2023/08/17 02:23:45;;;;;;;7.20;6.50;;;25.40;54.00;;;;;;5003048;28;116031;-80
2023/08/17 02:26:13;;;;;;;10.38;7.68;;;25.30;54.40;;;;;;4986797;28;115111;-79
2023/08/17 02:28:40;;;;;;;8.35;7.38;;;25.30;54.30;;;;;;5003466;28;114445;-79
2023/08/17 02:31:07;;;;;;;7.65;6.90;;;25.30;54.40;;;;;;5003436;28;114150;-79
2023/08/17 02:33:36;;;;;;;7.45;6.60;;;25.20;54.50;;;;;;5002199;28;114991;-80
2023/08/17 02:36:05;;;;;;;8.88;7.22;;;25.20;54.40;;;;;;5003401;28;115272;-80
2023/08/17 02:38:32;;;;;;;8.18;6.18;;;25.30;54.40;;;;;;4986922;28;114374;-79
2023/08/17 02:40:59;;;;;;;7.43;6.35;;;25.30;54.30;;;;;;4969935;28;114436;-80
2023/08/17 02:43:26;;;;;;;9.50;6.97;;;25.40;54.10;;;;;;5002288;28;115022;-80
2023/08/17 02:45:53;;;;;;;7.53;6.65;;;25.40;54.00;;;;;;5003665;28;115007;-79
2023/08/17 02:48:20;;;;;;;7.43;6.65;;;25.50;54.10;;;;;;5003102;28;114654;-79
2023/08/17 02:50:47;;;;;;;8.15;7.25;;;25.60;53.90;;;;;;5003500;28;114367;-79
2023/08/17 02:53:15;;;;;;;9.05;6.68;;;25.60;53.40;;;;;;5003428;28;114980;-80
2023/08/17 02:55:42;;;;;;;6.90;6.20;;;25.60;53.30;;;;;;5002248;28;114722;-80
2023/08/17 02:58:09;;;;;;;7.25;6.55;;;25.70;53.60;;;;;;4969494;28;114224;-79
2023/08/17 03:00:36;;;;;;;7.07;6.15;;;25.60;53.60;;;;;;5003013;28;114378;-79
2023/08/17 03:03:03;;;;;;;6.75;6.05;;;25.50;53.80;;;;;;5003619;28;114830;-79
2023/08/17 03:05:30;;;;;;;7.47;6.60;;;25.60;53.90;;;;;;4986065;28;114757;-79
2023/08/17 03:07:57;;;;;;;7.05;6.35;;;25.60;53.70;;;;;;5004184;28;114329;-79
2023/08/17 03:10:25;;;;;;;7.70;6.80;;;25.70;53.20;;;;;;5003982;28;114111;-79
2023/08/17 03:12:52;;;;;;;7.00;6.22;;;25.60;53.20;;;;;;5003348;28;114975;-79
2023/08/17 03:15:19;;;;;;;7.53;5.85;;;25.50;53.70;;;;;;5003176;28;114574;-79
2023/08/17 03:17:46;;;;;;;6.95;6.25;;;25.60;53.70;;;;;;5003040;28;114422;-80
2023/08/17 03:20:13;;;;;;;7.00;6.22;;;25.70;53.30;;;;;;4986368;28;114502;-79
2023/08/17 03:22:40;;;;;;;7.65;6.85;;;25.60;53.60;;;;;;4985533;28;115611;-79
2023/08/17 03:25:08;;;;;;;7.18;6.28;;;25.60;53.60;;;;;;5003603;28;115143;-80
2023/08/17 03:27:35;;;;;;;7.05;6.10;;;25.60;53.70;;;;;;5003098;28;114375;-79
2023/08/17 03:30:04;;;;;;;7.15;6.47;;;25.70;53.70;;;;;;4985421;28;114452;-80
2023/08/17 03:32:32;;;;;;;6.88;6.13;;;25.70;53.40;;;;;;5001624;28;115384;-79
2023/08/17 03:34:59;;;;;;;10.40;6.90;;;25.80;53.40;;;;;;5003229;28;114776;-80
2023/08/17 03:37:26;;;;;;;8.10;6.40;;;25.80;53.20;;;;;;4986412;28;114408;-80
2023/08/17 03:39:54;;;;;;;9.88;6.88;;;25.80;53.10;;;;;;5003014;28;114193;-80
2023/08/17 03:42:21;;;;;;;8.82;6.57;;;25.80;53.00;;;;;;5001427;28;114275;-79
2023/08/17 03:44:48;;;;;;;8.65;6.65;;;25.80;53.10;;;;;;4985120;28;114873;-79
2023/08/17 03:47:15;;;;;;;8.18;7.07;;;25.90;53.10;;;;;;5001853;28;114271;-80
2023/08/17 03:49:42;;;;;;;7.03;5.88;;;25.90;53.00;;;;;;4985758;28;114186;-80
2023/08/17 03:52:09;;;;;;;7.68;6.55;;;25.90;53.00;;;;;;5002497;28;114901;-79
2023/08/17 03:54:36;;;;;;;7.05;6.35;;;25.90;53.00;;;;;;5001474;28;115137;-79
2023/08/17 03:57:04;;;;;;;7.28;6.57;;;25.90;53.00;;;;;;5003472;28;114235;-80
2023/08/17 03:59:31;;;;;;;6.80;5.70;;;25.90;53.00;;;;;;5002002;28;114469;-79
2023/08/17 04:01:58;;;;;;;6.72;6.07;;;25.90;52.90;;;;;;5001291;28;114899;-79
2023/08/17 04:04:28;;;;;;;7.35;6.53;;;26.00;52.90;;;;;;5001744;28;114765;-81
2023/08/17 04:06:56;;;;;;;7.82;6.35;;;25.90;52.90;;;;;;5002073;28;114414;-80
2023/08/17 04:09:23;;;;;;;7.40;6.68;;;25.90;53.00;;;;;;5003152;28;114343;-79
2023/08/17 04:11:50;;;;;;;10.93;8.40;;;26.00;53.00;;;;;;4967655;28;115457;-80
2023/08/17 04:14:17;;;;;;;9.00;7.43;;;26.00;53.00;;;;;;5002315;28;114576;-80
2023/08/17 04:16:47;;;;;;;7.80;6.93;;;26.00;53.00;;;;;;4985643;28;114328;-78
2023/08/17 04:19:14;;;;;;;7.97;6.60;;;26.00;53.00;;;;;;4953108;28;114350;-78
2023/08/17 04:21:41;;;;;;;9.45;8.38;;;26.00;52.90;;;;;;5001820;28;115494;-79
2023/08/17 04:24:08;;;;;;;8.10;7.35;;;26.00;53.00;;;;;;4985357;28;114714;-79
2023/08/17 04:26:35;;;;;;;7.55;6.50;;;26.00;53.00;;;;;;5002753;28;114217;-79
2023/08/17 04:29:03;;;;;;;8.38;7.55;;;26.00;53.00;;;;;;5002914;28;114135;-79
2023/08/17 04:31:31;;;;;;;10.48;7.35;;;26.00;53.10;;;;;;5001721;28;114614;-79
2023/08/17 04:34:01;;;;;;;8.13;7.32;;;26.00;53.30;;;;;;4985812;28;114669;-79
2023/08/17 04:36:28;;;;;;;8.85;7.95;;;26.00;53.20;;;;;;4985676;28;114080;-79
2023/08/17 04:38:55;;;;;;;9.55;8.18;;;26.00;53.30;;;;;;5002379;28;114565;-80
2023/08/17 04:41:24;;;;;;;9.00;7.68;;;26.00;53.40;;;;;;5003791;28;114898;-80
2023/08/17 04:43:52;;;;;;;9.75;8.05;;;26.00;53.30;;;;;;5005280;28;114803;-79
2023/08/17 04:46:19;;;;;;;9.07;8.05;;;26.00;53.30;;;;;;5007326;28;114228;-80
2023/08/17 04:48:46;;;;;;;8.05;7.07;;;26.10;53.40;;;;;;4988940;28;114221;-79
2023/08/17 04:51:14;;;;;;;10.07;8.38;;;26.20;53.00;;;;;;5004686;28;115175;-79
2023/08/17 04:53:43;;;;;;;12.27;9.60;;;26.40;52.80;;;;;;4956945;28;114665;-79
2023/08/17 04:56:10;;;;;;;13.68;9.88;;;26.40;52.90;;;;;;4988969;28;114259;-79
2023/08/17 04:58:38;;;;;;;11.30;8.85;;;26.40;53.00;;;;;;4972725;28;114259;-80
2023/08/17 05:01:06;;;;;;;11.02;9.43;;;26.40;52.80;;;;;;4987393;28;114872;-79
2023/08/17 05:03:33;;;;;;;11.48;8.85;;;26.60;52.80;;;;;;4971521;28;114817;-80
2023/08/17 05:06:03;;;;;;;10.68;9.32;;;26.70;52.20;;;;;;4988606;28;114359;-79
2023/08/17 05:08:31;;;;;;;8.70;7.80;;;26.70;52.40;;;;;;5005941;28;114236;-79
2023/08/17 05:10:58;;;;;;;9.43;7.85;;;26.70;51.90;;;;;;5004110;28;114860;-79
2023/08/17 05:13:26;;;;;;;10.13;8.10;;;26.60;52.00;;;;;;4987558;28;114548;-78
2023/08/17 05:15:56;;;;;;;12.05;8.35;;;26.60;52.10;;;;;;5004613;28;114127;-79
2023/08/17 05:18:23;;;;;;;9.18;7.22;;;26.50;52.10;;;;;;5005151;28;114831;-78
2023/08/17 05:20:50;;;;;;;9.18;8.23;;;26.50;52.10;;;;;;5003984;28;116261;-78
2023/08/17 05:23:17;;;;;;;9.20;8.13;;;26.50;52.20;;;;;;4987490;28;118187;-79
2023/08/17 05:25:48;;;;;;;12.13;9.68;;;26.40;52.20;;;;;;5005079;28;114278;-79
2023/08/17 05:28:15;;;;;;;10.00;9.02;;;26.40;52.50;;;;;;5004887;28;114242;-80
2023/08/17 05:30:43;;;;;;;10.10;8.77;;;26.40;52.70;;;;;;5003991;28;115545;-79
2023/08/17 05:33:10;;;;;;;10.07;9.07;;;26.30;53.00;;;;;;4986824;28;115706;-79
2023/08/17 05:35:38;;;;;;;9.10;8.27;;;26.30;53.00;;;;;;5005123;28;114248;-79
2023/08/17 05:38:05;;;;;;;10.50;9.50;;;26.20;52.90;;;;;;5006627;28;114311;-78
2023/08/17 05:40:32;;;;;;;10.48;9.38;;;26.30;53.00;;;;;;4986638;28;114859;-79
2023/08/17 05:42:59;;;;;;;10.98;9.75;;;26.30;53.00;;;;;;5005347;28;114816;-80
2023/08/17 05:45:26;;;;;;;9.40;8.48;;;26.30;52.60;;;;;;5004325;28;114150;-79
2023/08/17 05:47:53;;;;;;;10.90;8.77;;;26.30;52.70;;;;;;5004306;28;114399;-79
2023/08/17 05:50:20;;;;;;;9.20;8.38;;;26.30;52.80;;;;;;5002744;28;117416;-79
2023/08/17 05:52:47;;;;;;;11.25;8.45;;;26.30;52.60;;;;;;5004004;28;114642;-80
2023/08/17 05:55:14;;;;;;;9.02;7.85;;;26.40;52.60;;;;;;5004151;28;114026;-78
2023/08/17 05:57:41;;;;;;;10.38;9.18;;;26.50;52.40;;;;;;5004982;28;114245;-80
2023/08/17 06:00:12;;;;;;;9.60;8.70;;;26.50;52.30;;;;;;5002558;28;115114;-80
2023/08/17 06:02:41;;;;;;;10.52;8.43;;;26.40;52.20;;;;;;5003231;28;115013;-78
2023/08/17 06:05:08;;;;;;;10.75;9.35;;;26.40;52.40;;;;;;5003564;28;114115;-80
2023/08/17 06:07:36;;;;;;;10.73;8.93;;;26.40;52.30;;;;;;5005536;28;114125;-78
2023/08/17 06:10:05;;;;;;;8.65;7.75;;;26.40;52.30;;;;;;5004256;28;114867;-79
2023/08/17 06:12:33;;;;;;;9.02;8.13;;;26.40;52.30;;;;;;5002838;28;114668;-80
2023/08/17 06:15:01;;;;;;;10.40;9.20;;;26.40;52.30;;;;;;5004057;28;114322;-81
2023/08/17 06:17:29;;;;;;;10.65;8.68;;;26.50;52.40;;;;;;5004874;28;114165;-81
2023/08/17 06:19:56;;;;;;;9.60;8.60;;;26.70;52.20;;;;;;5003805;28;115220;-80
2023/08/17 06:22:23;;;;;;;13.25;9.65;;;26.80;51.80;;;;;;5004117;28;114668;-80
2023/08/17 06:24:50;;;;;;;13.05;9.00;;;27.00;51.80;;;;;;5004750;28;114314;-79
2023/08/17 06:27:18;;;;;;;14.45;9.18;;;27.10;51.70;;;;;;4986857;28;114250;-79
2023/08/17 06:29:45;;;;;;;14.25;10.70;;;27.20;51.60;;;;;;5002869;28;115396;-80
2023/08/17 06:32:12;;;;;;;11.15;9.25;;;27.20;51.40;;;;;;5004253;28;115868;-79
2023/08/17 06:34:42;;;;;;;13.18;11.02;;;27.30;51.30;;;;;;5004603;28;114295;-80
2023/08/17 06:37:09;;;;;;;11.32;10.18;;;27.40;51.00;;;;;;5003317;28;114275;-80
2023/08/17 06:39:36;;;;;;;13.82;11.05;;;27.40;50.80;;;;;;4985768;28;115501;-80
2023/08/17 06:42:04;;;;;;;13.80;10.05;;;27.50;50.90;;;;;;5003621;28;114566;-79
2023/08/17 06:44:31;;;;;;;13.65;9.00;;;27.60;50.80;;;;;;5004623;28;114159;-80
2023/08/17 06:46:58;;;;;;;9.68;8.65;;;27.70;50.60;;;;;;5005201;28;114063;-80
2023/08/17 06:49:26;;;;;;;12.75;8.75;;;27.80;49.90;;;;;;5003062;28;115201;-80
2023/08/17 06:51:53;;;;;;;10.88;9.43;;;27.90;50.10;;;;;;5002117;28;115743;-79
2023/08/17 06:54:20;;;;;;;12.00;10.63;;;28.00;49.50;;;;;;5004480;28;114283;-78
2023/08/17 06:56:47;;;;;;;10.98;9.65;;;28.10;49.40;;;;;;5003556;28;114481;-80
2023/08/17 06:59:14;;;;;;;12.82;9.95;;;28.00;49.50;;;;;;5002790;28;114821;-79
2023/08/17 07:01:41;;;;;;;11.80;9.65;;;28.10;49.80;;;;;;5004037;28;114555;-81
2023/08/17 07:04:08;;;;;;;13.48;9.48;;;28.10;49.50;;;;;;5001882;28;114173;-79
2023/08/17 07:06:36;;;;;;;10.13;9.02;;;28.10;49.90;;;;;;5004429;28;114149;-80
2023/08/17 07:09:04;;;;;;;11.82;9.57;;;28.10;49.60;;;;;;5003616;28;115222;-80
2023/08/17 07:11:32;;;;;;;11.55;9.80;;;28.30;49.00;;;;;;5001863;28;115095;-80
2023/08/17 07:13:59;;;;;;;11.10;9.00;;;28.30;49.20;;;;;;5002869;28;114027;-79
2023/08/17 07:16:26;;;;;;;12.18;9.40;;;28.30;49.10;;;;;;5004059;28;114121;-80
2023/08/17 07:18:53;;;;;;;12.73;10.55;;;28.30;48.60;;;;;;5003591;28;114796;-79
2023/08/17 07:21:20;;;;;;;12.32;9.38;;;28.40;48.90;;;;;;5002688;28;116254;-79
2023/08/17 07:23:47;;;;;;;12.07;9.50;;;28.40;49.00;;;;;;5003023;28;114322;-80
2023/08/17 07:26:14;;;;;;;10.35;8.70;;;28.50;49.10;;;;;;5003331;28;114608;-80
2023/08/17 07:28:41;;;;;;;11.00;9.18;;;28.50;48.40;;;;;;5003079;28;115051;-80
2023/08/17 07:31:08;;;;;;;11.02;9.25;;;28.60;48.30;;;;;;5003804;28;114535;-79
2023/08/17 07:33:35;;;;;;;11.02;8.52;;;28.60;48.00;;;;;;5003059;28;114309;-79
2023/08/17 07:36:03;;;;;;;10.80;7.82;;;28.60;47.80;;;;;;5003129;28;114447;-79
2023/08/17 07:38:30;;;;;;;12.55;9.43;;;28.60;47.20;;;;;;5004544;28;114963;-79
2023/08/17 07:40:57;;;;;;;11.10;9.32;;;28.60;47.50;;;;;;5002181;28;115722;-78
2023/08/17 07:43:24;;;;;;;12.70;9.05;;;28.60;47.60;;;;;;5003346;28;114316;-78
2023/08/17 07:45:57;;;;;;;10.60;8.85;;;28.70;47.80;;;;;;5004676;28;114531;-79
2023/08/17 07:48:25;;;;;;;10.00;8.98;;;28.70;47.70;;;;;;5003183;28;116046;-78
2023/08/17 07:50:52;;;;;;;10.77;8.82;;;28.70;47.90;;;;;;5003182;28;114489;-79
2023/08/17 07:53:19;;;;;;;11.75;8.68;;;28.80;48.40;;;;;;5002111;28;114206;-80
2023/08/17 07:55:47;;;;;;;9.77;8.18;;;28.80;47.70;;;;;;4986074;28;114572;-82
2023/08/17 07:58:16;;;;;;;9.27;8.35;;;28.80;47.70;;;;;;5002717;28;114902;-80
2023/08/17 08:00:43;;;;;;;9.82;8.82;;;28.90;47.80;;;;;;5001963;27;115528;-80
2023/08/17 08:03:11;;;;;;;10.10;9.07;;;28.90;47.60;;;;;;5003500;28;114049;-80
2023/08/17 08:05:38;;;;;;;11.93;9.65;;;29.10;47.20;;;;;;5003712;28;114177;-80
2023/08/17 08:08:05;;;;;;;10.88;8.57;;;29.10;46.90;;;;;;5001548;28;114922;-80
2023/08/17 08:10:32;;;;;;;10.98;9.40;;;29.10;46.80;;;;;;5002176;28;115628;-78
2023/08/17 08:12:59;;;;;;;13.43;9.50;;;29.20;46.60;;;;;;5002908;28;114256;-78
2023/08/17 08:15:26;;;;;;;8.75;7.85;;;29.20;46.50;;;;;;5005001;28;114354;-78
2023/08/17 08:17:53;;;;;;;10.60;9.50;;;29.30;46.10;;;;;;5005548;28;115052;-78
2023/08/17 08:20:21;;;;;;;10.48;9.38;;;29.30;46.10;;;;;;5006290;28;115173;-78
2023/08/17 08:22:48;;;;;;;11.23;8.43;;;29.30;46.20;;;;;;5007021;28;114415;-78
2023/08/17 08:25:15;;;;;;;11.35;10.25;;;29.30;46.30;;;;;;5007273;28;114241;-78
2023/08/17 08:27:42;;;;;;;11.98;10.77;;;29.30;46.50;;;;;;5003856;28;116016;-78
2023/08/17 08:30:09;;;;;;;11.18;10.18;;;29.40;46.40;;;;;;5004768;28;116450;-78
2023/08/17 08:32:36;;;;;;;11.25;10.15;;;29.40;46.10;;;;;;5006069;28;114216;-78
2023/08/17 08:35:04;;;;;;;11.32;10.23;;;29.40;46.60;;;;;;5005831;28;114449;-79
2023/08/17 08:37:31;;;;;;;10.35;8.82;;;29.50;46.40;;;;;;5005750;28;116532;-79
2023/08/17 08:39:58;;;;;;;11.32;10.13;;;29.60;46.40;;;;;;4987998;28;114090;-80
2023/08/17 08:42:26;;;;;;;10.57;9.48;;;29.70;46.10;;;;;;5005658;28;114375;-79
2023/08/17 08:44:53;;;;;;;9.82;8.82;;;29.80;46.50;;;;;;5006514;28;114316;-79
2023/08/17 08:47:20;;;;;;;10.48;9.40;;;29.80;45.30;;;;;;4987714;28;117176;-80
2023/08/17 08:49:54;;;;;;;9.75;8.48;;;29.80;45.10;;;;;;5004372;28;115038;-79
2023/08/17 08:52:23;;;;;;;10.75;9.65;;;29.80;45.10;;;;;;5005713;28;114075;-80
2023/08/17 08:54:51;;;;;;;9.63;8.63;;;29.80;45.20;;;;;;5005336;28;114693;-80
2023/08/17 08:57:21;;;;;;;9.20;7.97;;;29.90;45.30;;;;;;5004359;28;114873;-81
2023/08/17 08:59:50;;;;;;;9.70;8.02;;;29.90;45.00;;;;;;4988795;28;114869;-80
2023/08/17 09:02:17;;;;;;;9.27;7.97;;;30.00;44.70;;;;;;5005460;28;114403;-80
2023/08/17 09:04:47;;;;;;;9.73;8.10;;;29.90;44.60;;;;;;4988722;28;114082;-80
2023/08/17 09:07:17;;;;;;;9.15;8.18;;;29.90;44.60;;;;;;4987934;28;115327;-80
2023/08/17 09:09:45;;;;;;;9.15;7.88;;;29.90;44.60;;;;;;5005054;28;114704;-80
2023/08/17 09:12:12;;;;;;;9.85;8.85;;;29.90;44.80;;;;;;5004919;28;114175;-80
2023/08/17 09:14:44;;;;;;;10.02;8.93;;;29.80;45.00;;;;;;5005334;28;114309;-80
2023/08/17 09:17:11;;;;;;;11.43;8.73;;;29.80;45.40;;;;;;5003970;28;114885;-80
2023/08/17 09:19:38;;;;;;;9.77;8.20;;;29.80;44.30;;;;;;5004913;28;115266;-80
2023/08/17 09:22:11;;;;;;;9.43;8.05;;;29.80;44.50;;;;;;5005814;28;114508;-79
2023/08/17 09:24:38;;;;;;;10.35;9.00;;;29.70;45.10;;;;;;5005969;28;114394;-79
2023/08/17 09:27:05;;;;;;;10.27;9.02;;;29.60;45.00;;;;;;5004265;28;115399;-79
2023/08/17 09:29:38;;;;;;;10.13;9.02;;;29.70;44.80;;;;;;4988182;28;114881;-78
2023/08/17 09:32:06;;;;;;;9.63;8.68;;;29.70;44.80;;;;;;5004202;28;114184;-79
2023/08/17 09:34:33;;;;;;;10.95;9.30;;;29.80;45.00;;;;;;5005740;28;114226;-80
2023/08/17 09:37:06;;;;;;;10.95;8.85;;;30.00;44.70;;;;;;5003925;28;114941;-79
2023/08/17 09:39:33;;;;;;;10.95;8.70;;;30.10;44.20;;;;;;4988032;28;114589;-78
2023/08/17 09:42:00;;;;;;;8.45;7.65;;;30.10;44.00;;;;;;4987610;28;114296;-79
2023/08/17 09:44:27;;;;;;;9.30;7.40;;;30.10;44.00;;;;;;5004471;28;114722;-81
2023/08/17 09:46:56;;;;;;;9.35;7.55;;;30.00;41.90;;;;;;5003759;28;114893;-80
2023/08/17 09:49:24;;;;;;;9.35;7.80;;;30.00;42.10;;;;;;4987608;28;116331;-80
2023/08/17 09:51:52;;;;;;;9.15;7.95;;;29.90;42.50;;;;;;5005687;28;114099;-80
2023/08/17 09:54:23;;;;;;;9.68;8.48;;;29.80;42.80;;;;;;5005836;28;114350;-81
2023/08/17 09:56:51;;;;;;;8.82;7.93;;;29.70;43.00;;;;;;4970027;28;118016;-80
2023/08/17 09:59:18;;;;;;;8.63;7.82;;;29.70;43.40;;;;;;5004837;28;114844;-80
2023/08/17 10:01:49;;;;;;;8.55;7.57;;;29.80;43.20;;;;;;5004244;28;114088;-80
2023/08/17 10:04:23;;;;;;;8.65;7.72;;;29.80;43.00;;;;;;5005773;28;114619;-78
2023/08/17 10:07:04;;;;;;;9.75;7.30;;;29.80;42.80;;;;;;4987251;28;115016;-79
2023/08/17 10:09:36;;;;;;;9.27;7.30;;;29.90;42.90;;;;;;5003693;28;114807;-80
2023/08/17 10:12:08;;;;;;;7.75;7.05;;;29.80;42.70;;;;;;5004184;28;114231;-79
2023/08/17 10:14:39;;;;;;;9.13;7.40;;;29.70;42.00;;;;;;5004339;28;114295;-80
2023/08/17 10:17:12;;;;;;;8.85;7.40;;;29.50;42.30;;;;;;5003248;28;115045;-80
2023/08/17 10:19:44;;;;;;;8.38;7.45;;;29.60;43.20;;;;;;5003603;28;114858;-80
2023/08/17 10:22:30;;;;;;;9.20;7.47;;;29.70;43.00;;;;;;4987750;28;114282;-80
2023/08/17 10:25:03;;;;;;;7.90;7.10;;;29.70;42.70;;;;;;5003915;28;114502;-80
2023/08/17 10:27:30;;;;;;;7.43;6.63;;;29.80;42.10;;;;;;5003024;28;114912;-81
2023/08/17 10:29:57;;;;;;;8.65;6.60;;;29.70;41.80;;;;;;5004181;28;115889;-81
2023/08/17 10:32:25;;;;;;;7.70;6.20;;;29.70;41.40;;;;;;5003632;28;114170;-79
2023/08/17 10:34:52;;;;;;;7.57;6.53;;;29.70;41.60;;;;;;4971069;28;114386;-79
2023/08/17 10:37:20;;;;;;;6.85;6.22;;;29.80;41.80;;;;;;4986696;28;115289;-81
2023/08/17 10:39:48;;;;;;;7.55;6.75;;;29.80;41.50;;;;;;5003862;28;114538;-80
2023/08/17 10:42:16;;;;;;;9.10;7.13;;;29.80;42.20;;;;;;5003885;28;114378;-81
2023/08/17 10:44:49;;;;;;;8.75;6.10;;;29.70;42.40;;;;;;5004075;28;114174;-79
2023/08/17 10:47:23;;;;;;;8.20;7.40;;;29.60;41.80;;;;;;5002929;28;115537;-81
2023/08/17 10:50:19;;;;;;;8.02;6.50;;;29.60;42.30;;;;;;5004510;28;115148;-80
2023/08/17 10:52:48;;;;;;;10.80;6.80;;;29.60;42.50;;;;;;4998500;28;114160;-80
2023/08/17 10:55:15;;;;;;;7.72;6.95;;;29.60;43.30;;;;;;5003859;28;114479;-81
2023/08/17 10:57:43;;;;;;;11.20;6.68;;;29.40;42.50;;;;;;5003910;28;114936;-80
2023/08/17 11:00:14;;;;;;;8.43;6.97;;;29.30;42.40;;;;;;5002817;28;114612;-80
2023/08/17 11:03:00;;;;;;;8.93;6.53;;;29.00;42.80;;;;;;5004625;28;114234;-81
2023/08/17 11:05:42;;;;;;;8.75;7.10;;;28.80;43.30;;;;;;4987253;28;114352;-80
2023/08/17 11:08:26;;;;;;;8.07;7.28;;;28.50;43.40;;;;;;4986277;28;117458;-80
2023/08/17 11:11:05;;;;;;;8.88;6.82;;;28.30;44.20;;;;;;5001953;28;114649;-81
2023/08/17 11:13:34;;;;;;;7.70;6.85;;;28.10;44.60;;;;;;5003024;28;114488;-79
2023/08/17 11:16:01;;;;;;;10.85;6.95;;;28.00;45.10;;;;;;5003182;28;114547;-79
2023/08/17 11:18:31;;;;;;;9.05;7.55;;;27.90;45.60;;;;;;5003895;28;114958;-80
2023/08/17 11:20:59;;;;;;;16.98;7.38;;;27.70;45.80;;;;;;5003172;28;114667;-81
2023/08/17 11:23:30;;;;;;;8.35;5.80;;;27.70;47.20;;;;;;5003399;28;114107;-79
2023/08/17 11:25:57;;;;;;;10.27;6.15;;;27.20;47.10;;;;;;4986399;28;114570;-80
2023/08/17 11:28:24;;;;;;;8.05;5.97;;;26.70;48.90;;;;;;4986103;28;115391;-80
2023/08/17 11:31:01;;;;;;;8.77;6.47;;;26.30;50.60;;;;;;5003118;28;114534;-80
2023/08/17 11:33:30;;;;;;;8.80;6.88;;;25.90;51.60;;;;;;5003264;28;114173;-79
2023/08/17 11:36:02;;;;;;;12.82;7.80;;;25.70;53.30;;;;;;4987156;28;114189;-80
2023/08/17 11:38:34;;;;;;;9.63;7.75;;;25.40;54.40;;;;;;4969886;28;115150;-80
2023/08/17 11:41:02;;;;;;;10.65;7.20;;;25.40;54.40;;;;;;4968695;28;115908;-79
2023/08/17 11:43:30;;;;;;;9.68;7.22;;;25.50;55.30;;;;;;5003709;28;114410;-80
2023/08/17 11:45:58;;;;;;;10.27;7.65;;;25.70;54.80;;;;;;5003729;28;114278;-80
2023/08/17 11:48:30;;;;;;;14.55;8.32;;;25.70;55.80;;;;;;4986475;28;115616;-80
2023/08/17 11:51:05;;;;;;;9.48;7.32;;;25.60;55.50;;;;;;4985929;28;117355;-80
2023/08/17 11:53:39;;;;;;;11.10;7.53;;;25.50;54.80;;;;;;4986640;28;114146;-80
2023/08/17 11:56:07;;;;;;;11.45;8.10;;;25.30;56.40;;;;;;5004174;28;114308;-79
2023/08/17 11:58:45;;;;;;;14.18;8.25;;;25.10;56.70;;;;;;5001874;28;115063;-80
2023/08/17 12:01:12;;;;;;;11.57;6.30;;;24.80;57.00;;;;;;5001471;28;116813;-79
2023/08/17 12:03:41;;;;;;;10.80;6.55;;;24.40;57.10;;;;;;4969428;28;114594;-80
2023/08/17 12:06:09;;;;;;;7.50;5.50;;;24.00;57.60;;;;;;5003772;28;114343;-80
2023/08/17 12:08:36;;;;;;;6.60;5.53;;;23.90;57.40;;;;;;5003007;28;114921;-80
2023/08/17 12:11:06;;;;;;;6.80;5.68;;;23.90;57.00;;;;;;5002767;28;114685;-80
2023/08/17 12:13:34;;;;;;;7.57;5.00;;;23.60;58.10;;;;;;5002369;28;115174;-80
2023/08/17 12:16:01;;;;;;;6.93;4.55;;;23.50;57.50;;;;;;5002256;28;114233;-80
2023/08/17 12:18:35;;;;;;;6.47;4.97;;;23.30;57.90;;;;;;4985620;28;114568;-80
2023/08/17 12:21:03;;;;;;;5.35;4.25;;;23.10;58.40;;;;;;4952884;28;114555;-79
2023/08/17 12:23:32;;;;;;;6.85;5.05;;;22.80;59.30;;;;;;5001683;28;114174;-79
2023/08/17 12:25:59;;;;;;;7.32;5.00;;;22.80;59.40;;;;;;4985766;28;114192;-79
2023/08/17 12:28:26;;;;;;;6.35;4.57;;;22.80;59.30;;;;;;5000501;28;116260;-79
2023/08/17 12:30:58;;;;;;;6.70;4.50;;;22.90;59.50;;;;;;4984762;28;115188;-80
2023/08/17 12:33:25;;;;;;;4.30;3.90;;;23.00;59.20;;;;;;5001943;28;114446;-80
2023/08/17 12:35:52;;;;;;;6.00;4.43;;;22.80;59.20;;;;;;5002789;28;114350;-80
2023/08/17 12:38:19;;;;;;;5.72;4.03;;;22.70;59.90;;;;;;5001286;28;115172;-80